Time;durP1;ratioP1;P1;durP2;ratioP2;P2;SDS_P1;SDS_P2;PMS_P1;PMS_P2;Temp;Humidity;BMP_temperature;BMP_pressure;BME280_temperature;BME280_humidity;BME280_pressure;Samples;Min_cycle;Max_cycle;Signal;HPM_P1;HPM_P2
2021/05/06 00:02:31;;;;;;;22.17;20.98;;;7.90;76.00;;;;;;5112973;28;20220;-76
2021/05/06 00:07:58;;;;;;;22.92;21.48;;;7.90;77.90;;;;;;5112486;28;20212;-75
2021/05/06 00:32:28;;;;;;;22.40;21.30;;;8.20;75.60;;;;;;5112386;28;20235;-75
2021/05/06 00:34:56;;;;;;;22.23;21.13;;;8.20;76.10;;;;;;5112475;28;20200;-75
2021/05/06 00:37:22;;;;;;;22.13;20.92;;;8.10;75.90;;;;;;5111904;28;20567;-75
2021/05/06 00:39:55;;;;;;;22.52;21.27;;;8.10;76.00;;;;;;5112786;28;20197;-74
2021/05/06 00:42:54;;;;;;;22.33;21.05;;;8.00;76.20;;;;;;5112491;28;20263;-75
2021/05/06 00:54:23;;;;;;;21.88;20.77;;;8.00;76.20;;;;;;5112570;28;20202;-75
2021/05/06 00:56:55;;;;;;;22.42;21.20;;;8.00;76.10;;;;;;5112160;28;20287;-77
2021/05/06 01:04:55;;;;;;;21.98;20.77;;;8.10;76.20;;;;;;5112477;28;20186;-75
2021/05/06 01:07:36;;;;;;;22.70;21.50;;;8.10;76.50;;;;;;5111699;28;20194;-76
2021/05/06 01:10:17;;;;;;;21.95;20.75;;;8.00;76.60;;;;;;5112622;28;20219;-75
2021/05/06 01:12:44;;;;;;;23.35;21.85;;;8.10;76.50;;;;;;5112495;28;20211;-75
2021/05/06 01:15:11;;;;;;;22.40;21.15;;;8.00;76.50;;;;;;5112181;28;20194;-76
2021/05/06 01:17:38;;;;;;;22.48;21.17;;;7.90;76.80;;;;;;5111908;28;20201;-76
2021/05/06 01:20:06;;;;;;;22.25;21.15;;;7.90;77.10;;;;;;5112152;28;20641;-76
2021/05/06 01:22:33;;;;;;;22.70;21.40;;;7.90;77.30;;;;;;5112050;28;20644;-76
2021/05/06 01:25:00;;;;;;;22.58;21.40;;;8.00;76.90;;;;;;5112056;28;20231;-76
2021/05/06 01:27:33;;;;;;;22.80;21.40;;;7.90;76.80;;;;;;5111641;28;20234;-75
2021/05/06 01:30:07;;;;;;;23.17;21.88;;;7.90;76.70;;;;;;5116019;28;20201;-75
2021/05/06 01:32:37;;;;;;;22.75;21.48;;;7.90;76.80;;;;;;5115568;27;20210;-76
2021/05/06 01:35:09;;;;;;;22.40;21.20;;;8.00;76.70;;;;;;5115788;28;20291;-76
2021/05/06 01:37:44;;;;;;;22.35;21.15;;;8.00;76.70;;;;;;5115216;28;20554;-76
2021/05/06 01:40:36;;;;;;;21.75;20.65;;;8.00;76.60;;;;;;5115990;28;20217;-76
2021/05/06 01:43:06;;;;;;;22.65;21.50;;;7.90;78.50;;;;;;5115818;28;20214;-75
2021/05/06 01:46:02;;;;;;;22.88;21.67;;;8.00;76.70;;;;;;5115141;28;20342;-75
2021/05/06 01:48:50;;;;;;;23.05;21.58;;;8.00;76.40;;;;;;5115854;28;20650;-75
2021/05/06 01:57:30;;;;;;;23.20;22.00;;;8.00;76.10;;;;;;5115670;28;20221;-75
2021/05/06 01:59:45;;;;;;;23.65;22.25;;;8.00;76.00;;;;;;5115419;28;20315;-75
2021/05/06 02:02:11;;;;;;;23.50;22.20;;;8.00;75.70;;;;;;5115372;28;20229;-75
2021/05/06 02:04:37;;;;;;;22.98;21.70;;;8.10;74.90;;;;;;5115199;28;20201;-75
2021/05/06 02:07:04;;;;;;;23.92;22.30;;;8.10;75.10;;;;;;5114807;28;20201;-75
2021/05/06 02:09:31;;;;;;;24.08;22.77;;;8.10;75.00;;;;;;5115181;27;20201;-75
2021/05/06 02:11:58;;;;;;;23.48;22.10;;;8.10;74.70;;;;;;5115151;28;20228;-75
2021/05/06 02:14:25;;;;;;;23.35;22.02;;;8.20;74.70;;;;;;5114988;27;20219;-75
2021/05/06 02:16:51;;;;;;;22.85;21.52;;;8.20;74.60;;;;;;5114606;28;20681;-75
2021/05/06 02:19:26;;;;;;;23.35;21.95;;;8.20;74.50;;;;;;5115096;28;20237;-75
2021/05/06 02:21:52;;;;;;;23.50;22.20;;;8.20;74.40;;;;;;5114865;28;20228;-75
2021/05/06 02:24:19;;;;;;;24.17;22.88;;;8.20;74.30;;;;;;5115061;28;20288;-75
2021/05/06 02:26:46;;;;;;;24.13;22.45;;;8.20;74.10;;;;;;5114332;28;20202;-75
2021/05/06 02:29:13;;;;;;;23.38;21.83;;;8.20;73.90;;;;;;5114844;28;20288;-75
2021/05/06 02:31:39;;;;;;;25.10;23.52;;;8.20;73.80;;;;;;5114326;28;20209;-75
2021/05/06 02:34:05;;;;;;;24.13;22.52;;;8.20;73.50;;;;;;5114957;28;20686;-75
2021/05/06 02:36:32;;;;;;;24.75;23.25;;;8.20;73.60;;;;;;5114333;28;20663;-75
2021/05/06 02:38:58;;;;;;;23.77;22.27;;;8.20;73.80;;;;;;5114231;27;20211;-75
2021/05/06 02:41:25;;;;;;;23.98;22.48;;;8.20;73.60;;;;;;5114506;28;20215;-75
2021/05/06 02:43:52;;;;;;;25.23;23.35;;;8.20;73.90;;;;;;5114435;28;20296;-75
2021/05/06 02:46:18;;;;;;;24.55;23.15;;;8.20;74.00;;;;;;5114031;28;20829;-75
2021/05/06 02:48:45;;;;;;;24.42;22.92;;;8.20;73.80;;;;;;5114517;28;20206;-75
2021/05/06 02:51:12;;;;;;;23.63;22.23;;;8.30;73.90;;;;;;5114503;28;20215;-75
2021/05/06 02:53:46;;;;;;;23.45;22.25;;;8.30;74.00;;;;;;5114350;28;20262;-75
2021/05/06 02:56:17;;;;;;;25.00;23.40;;;8.30;74.20;;;;;;5113774;28;20205;-75
2021/05/06 02:58:56;;;;;;;28.38;26.60;;;8.20;74.70;;;;;;5114470;27;20191;-75
2021/05/06 03:04:10;;;;;;;24.08;22.67;;;8.30;74.60;;;;;;5114344;28;20307;-75
2021/05/06 03:06:45;;;;;;;24.02;22.73;;;8.30;74.80;;;;;;5113556;28;20197;-75
2021/05/06 03:09:24;;;;;;;24.92;23.42;;;8.30;75.20;;;;;;5114133;28;20201;-75
2021/05/06 03:11:56;;;;;;;24.13;22.50;;;8.20;76.30;;;;;;5114101;28;20232;-76
2021/05/06 03:14:36;;;;;;;29.05;27.10;;;8.20;76.90;;;;;;5114154;28;20235;-75
2021/05/06 03:22:46;;;;;;;25.30;23.75;;;8.20;77.00;;;;;;5114132;28;20237;-75
2021/05/06 03:25:16;;;;;;;22.70;21.40;;;8.10;77.70;;;;;;5113937;28;20662;-75
2021/05/06 03:27:48;;;;;;;22.63;20.98;;;8.00;78.90;;;;;;5114620;28;20215;-75
2021/05/06 03:30:34;;;;;;;26.92;25.23;;;7.90;79.30;;;;;;5114510;28;20204;-75
2021/05/06 03:35:59;;;;;;;22.90;21.20;;;7.80;81.80;;;;;;5113901;28;20219;-75
2021/05/06 03:44:03;;;;;;;24.67;22.83;;;7.60;82.60;;;;;;5113654;28;20209;-74
2021/05/06 03:49:35;;;;;;;22.35;20.83;;;7.40;83.20;;;;;;5100323;28;20652;-75
2021/05/06 04:03:34;;;;;;;23.15;21.75;;;7.10;84.00;;;;;;5113168;28;20241;-75
2021/05/06 04:17:06;;;;;;;22.20;20.70;;;7.10;86.60;;;;;;5112572;28;20268;-75
2021/05/06 04:27:47;;;;;;;21.67;20.48;;;7.10;87.20;;;;;;5112302;28;20196;-75
2021/05/06 04:30:37;;;;;;;24.15;22.67;;;7.10;87.80;;;;;;5112732;28;20782;-75
2021/05/06 04:35:50;;;;;;;23.35;21.73;;;7.10;87.30;;;;;;5112253;28;20609;-75
2021/05/06 04:38:22;;;;;;;21.05;19.83;;;7.20;86.90;;;;;;5112349;28;20199;-75
2021/05/06 04:41:07;;;;;;;22.08;20.77;;;7.20;86.80;;;;;;5112561;28;20260;-75
2021/05/06 04:46:39;;;;;;;22.38;20.98;;;7.40;86.30;;;;;;5111819;28;20966;-75
2021/05/06 04:54:37;;;;;;;24.35;22.88;;;7.60;87.10;;;;;;5112651;28;20243;-75
2021/05/06 04:57:23;;;;;;;22.38;20.75;;;7.80;85.80;;;;;;5111864;28;20742;-76
2021/05/06 05:05:19;;;;;;;22.48;21.15;;;7.90;85.60;;;;;;5116574;28;20225;-76
2021/05/06 05:07:49;;;;;;;24.23;22.55;;;8.00;86.90;;;;;;5116337;28;20195;-76
2021/05/06 05:10:36;;;;;;;23.23;21.45;;;8.10;85.30;;;;;;5116588;28;20198;-76
2021/05/06 05:13:18;;;;;;;35.28;24.38;;;8.10;86.70;;;;;;5116532;28;20191;-75
2021/05/06 05:21:21;;;;;;;24.08;22.67;;;8.40;83.60;;;;;;5105914;28;20245;-76
2021/05/06 05:23:49;;;;;;;22.70;21.25;;;8.50;83.50;;;;;;5116335;28;20254;-76
2021/05/06 05:26:16;;;;;;;23.55;21.92;;;8.70;83.10;;;;;;5115681;28;20186;-76
2021/05/06 05:28:42;;;;;;;23.02;21.42;;;8.70;84.20;;;;;;5116219;28;20291;-76
2021/05/06 05:31:09;;;;;;;24.08;22.33;;;8.80;82.60;;;;;;5116076;28;20305;-76
2021/05/06 05:33:40;;;;;;;29.48;27.45;;;8.80;81.90;;;;;;5115594;27;20277;-76
2021/05/06 05:36:14;;;;;;;28.80;26.55;;;8.60;82.00;;;;;;5115712;28;20195;-76
2021/05/06 05:38:57;;;;;;;26.10;24.48;;;8.70;81.90;;;;;;5115995;28;20533;-76
2021/05/06 05:41:57;;;;;;;25.55;24.05;;;8.80;82.20;;;;;;5116045;28;20237;-77
2021/05/06 05:55:35;;;;;;;27.90;26.02;;;9.00;82.10;;;;;;5115232;28;20617;-75
2021/05/06 05:58:03;;;;;;;23.73;22.33;;;9.00;81.70;;;;;;5115664;28;20285;-76
2021/05/06 06:00:29;;;;;;;24.75;23.35;;;9.10;81.50;;;;;;5115568;28;20254;-75
2021/05/06 06:02:56;;;;;;;25.02;23.33;;;9.00;81.50;;;;;;5115408;28;20305;-76
2021/05/06 06:05:23;;;;;;;25.85;24.35;;;8.90;84.30;;;;;;5115222;28;20205;-75
2021/05/06 06:07:50;;;;;;;520.58;89.20;;;8.90;82.60;;;;;;5115197;28;20198;-75
2021/05/06 06:10:16;;;;;;;35.90;27.08;;;8.90;82.20;;;;;;5115314;28;20199;-76
2021/05/06 06:12:43;;;;;;;24.08;22.58;;;8.90;81.90;;;;;;5115415;28;20281;-77
2021/05/06 06:15:14;;;;;;;46.80;26.30;;;9.00;81.00;;;;;;5114956;28;20548;-76
2021/05/06 06:17:42;;;;;;;36.67;29.17;;;8.80;87.50;;;;;;5115109;28;20653;-77
2021/05/06 06:20:10;;;;;;;27.02;24.48;;;8.80;83.90;;;;;;5115070;28;20198;-74
2021/05/06 06:22:37;;;;;;;25.35;22.98;;;8.70;84.30;;;;;;5115045;28;20232;-75
2021/05/06 06:25:05;;;;;;;24.80;22.90;;;8.80;82.60;;;;;;5115190;28;20289;-77
2021/05/06 06:27:31;;;;;;;25.83;24.15;;;8.90;82.30;;;;;;5114638;28;20282;-76
2021/05/06 06:29:59;;;;;;;24.98;23.35;;;9.00;80.20;;;;;;5115083;28;20275;-76
2021/05/06 06:32:26;;;;;;;25.63;23.42;;;9.00;80.00;;;;;;5114566;28;20225;-76
2021/05/06 06:34:52;;;;;;;24.77;23.17;;;9.10;79.10;;;;;;5115164;28;20232;-75
2021/05/06 06:37:19;;;;;;;23.45;22.05;;;9.10;78.70;;;;;;5114102;28;20297;-76
2021/05/06 06:39:45;;;;;;;26.17;24.38;;;9.00;80.50;;;;;;5114926;28;20255;-77
2021/05/06 06:42:12;;;;;;;24.45;22.85;;;9.00;81.00;;;;;;5114518;28;20701;-77
2021/05/06 06:44:39;;;;;;;25.45;23.67;;;9.00;82.30;;;;;;5114998;28;20230;-77
2021/05/06 06:47:07;;;;;;;24.83;23.15;;;9.00;85.20;;;;;;5114128;28;20191;-75
2021/05/06 06:49:36;;;;;;;26.77;24.95;;;9.00;82.70;;;;;;5114831;28;20234;-76
2021/05/06 06:52:04;;;;;;;54.67;26.73;;;9.10;84.20;;;;;;5114602;28;20242;-77
2021/05/06 06:54:30;;;;;;;23.30;21.90;;;9.10;84.20;;;;;;5114578;28;20204;-76
2021/05/06 06:56:57;;;;;;;26.30;24.38;;;9.10;84.70;;;;;;5113978;28;20230;-76
2021/05/06 06:59:24;;;;;;;26.50;24.80;;;9.30;81.20;;;;;;5114398;28;20201;-77
2021/05/06 07:01:50;;;;;;;26.45;24.65;;;9.40;79.50;;;;;;5114117;28;20313;-77
2021/05/06 07:04:17;;;;;;;24.58;23.10;;;9.40;78.50;;;;;;5114208;28;20613;-76
2021/05/06 07:06:44;;;;;;;29.20;26.55;;;9.40;78.60;;;;;;5114131;28;20195;-76
2021/05/06 07:09:11;;;;;;;27.63;25.00;;;9.40;79.60;;;;;;5114125;28;20194;-76
2021/05/06 07:11:37;;;;;;;29.05;26.50;;;9.40;80.10;;;;;;5114058;28;20219;-75
2021/05/06 07:14:05;;;;;;;25.40;23.80;;;9.60;79.30;;;;;;5114269;28;20534;-76
2021/05/06 07:16:31;;;;;;;28.27;25.60;;;9.70;80.10;;;;;;5113335;28;20217;-77
2021/05/06 07:18:58;;;;;;;27.60;25.20;;;9.80;77.20;;;;;;5114130;28;20190;-77
2021/05/06 07:21:25;;;;;;;26.95;24.80;;;9.90;76.40;;;;;;5113965;28;20297;-77
2021/05/06 07:23:54;;;;;;;27.17;25.43;;;10.00;76.00;;;;;;5113702;28;20214;-77
2021/05/06 07:26:21;;;;;;;28.20;26.35;;;10.20;75.80;;;;;;5112716;28;20448;-77
2021/05/06 07:28:49;;;;;;;31.55;27.00;;;10.30;75.10;;;;;;5114091;28;20248;-77
2021/05/06 07:31:16;;;;;;;27.50;25.30;;;10.30;75.70;;;;;;5113507;28;20215;-77
2021/05/06 07:33:44;;;;;;;40.13;36.27;;;10.20;75.90;;;;;;5113395;27;20237;-77
2021/05/06 07:36:11;;;;;;;25.88;24.05;;;10.20;77.20;;;;;;5113217;28;20460;-77
2021/05/06 07:38:38;;;;;;;35.87;32.70;;;10.30;77.70;;;;;;5114249;28;20194;-76
2021/05/06 07:41:06;;;;;;;26.03;24.40;;;10.40;76.60;;;;;;5113600;28;20480;-77
2021/05/06 07:43:33;;;;;;;26.30;24.03;;;10.70;75.20;;;;;;5113434;28;21016;-76
2021/05/06 07:45:59;;;;;;;30.20;27.10;;;11.00;73.70;;;;;;5112719;28;20577;-76
2021/05/06 07:48:26;;;;;;;36.10;32.30;;;11.30;72.10;;;;;;5113595;28;20459;-77
2021/05/06 07:50:54;;;;;;;29.63;26.47;;;11.40;71.10;;;;;;5113278;28;20564;-77
2021/05/06 07:53:24;;;;;;;28.77;25.70;;;11.50;71.00;;;;;;5113358;28;20499;-77
2021/05/06 07:55:52;;;;;;;26.73;24.83;;;11.70;70.10;;;;;;5112695;28;20892;-77
2021/05/06 07:58:19;;;;;;;28.03;25.93;;;11.80;69.80;;;;;;5113220;28;20499;-77
2021/05/06 08:00:46;;;;;;;26.40;24.40;;;11.90;68.20;;;;;;5113102;28;20468;-77
2021/05/06 08:03:13;;;;;;;28.87;27.07;;;11.90;69.10;;;;;;5113092;28;20529;-77
2021/05/06 08:05:40;;;;;;;26.30;24.60;;;12.00;67.20;;;;;;5112547;28;20452;-77
2021/05/06 08:08:06;;;;;;;25.70;23.90;;;11.90;65.90;;;;;;5113267;28;20449;-76
2021/05/06 08:10:33;;;;;;;26.70;24.70;;;11.80;66.40;;;;;;5112839;28;20551;-76
2021/05/06 08:13:02;;;;;;;26.50;24.60;;;11.70;66.40;;;;;;5113153;28;20480;-76
2021/05/06 08:15:29;;;;;;;26.93;25.23;;;11.60;66.00;;;;;;5112666;28;20455;-77
2021/05/06 08:17:56;;;;;;;28.70;26.43;;;11.30;65.70;;;;;;5113043;28;20531;-77
2021/05/06 08:20:23;;;;;;;27.20;25.27;;;11.20;67.20;;;;;;5112904;28;20457;-77
2021/05/06 08:22:50;;;;;;;27.63;25.80;;;11.20;67.80;;;;;;5112988;28;20939;-77
2021/05/06 08:25:18;;;;;;;31.20;29.07;;;11.30;68.00;;;;;;5112859;28;20491;-77
2021/05/06 08:27:45;;;;;;;28.97;27.17;;;11.40;67.40;;;;;;5112457;28;20540;-77
2021/05/06 08:30:13;;;;;;;26.50;24.90;;;11.30;67.40;;;;;;5112749;28;20539;-77
2021/05/06 08:32:41;;;;;;;26.00;24.40;;;11.40;68.10;;;;;;5112348;28;20455;-77
2021/05/06 08:35:08;;;;;;;27.00;25.20;;;11.40;68.00;;;;;;5112839;28;20448;-78
2021/05/06 08:37:35;;;;;;;27.50;25.67;;;11.50;67.30;;;;;;5111873;28;20448;-78
2021/05/06 08:40:02;;;;;;;27.70;25.70;;;11.50;66.30;;;;;;5112981;28;20459;-78
2021/05/06 08:42:29;;;;;;;27.13;25.10;;;11.40;67.20;;;;;;5112972;28;20479;-78
2021/05/06 08:44:56;;;;;;;27.47;25.80;;;11.50;67.50;;;;;;5112685;28;20968;-77
2021/05/06 08:47:23;;;;;;;26.93;25.13;;;11.60;66.50;;;;;;5112319;28;20448;-77
2021/05/06 08:49:51;;;;;;;26.60;25.00;;;11.60;66.10;;;;;;5112804;28;20456;-77
2021/05/06 08:52:20;;;;;;;26.30;24.20;;;11.50;67.00;;;;;;5112370;28;20505;-77
2021/05/06 08:54:47;;;;;;;30.93;29.13;;;11.40;67.10;;;;;;5112410;28;20455;-77
2021/05/06 08:57:14;;;;;;;27.60;25.70;;;11.50;66.30;;;;;;5112156;28;20456;-77
2021/05/06 08:59:41;;;;;;;31.70;29.37;;;11.30;66.70;;;;;;5112461;28;20531;-77
2021/05/06 09:02:08;;;;;;;27.00;24.93;;;11.30;67.20;;;;;;5112346;28;20478;-77
2021/05/06 09:04:35;;;;;;;25.70;23.93;;;11.30;67.60;;;;;;5112313;28;20539;-77
2021/05/06 09:07:03;;;;;;;26.97;25.40;;;11.30;66.60;;;;;;5111747;28;20907;-77
2021/05/06 09:09:31;;;;;;;26.20;24.50;;;11.20;67.20;;;;;;5112280;28;20456;-77
2021/05/06 09:11:59;;;;;;;25.43;23.80;;;11.20;67.80;;;;;;5112491;28;20551;-77
2021/05/06 09:14:39;;;;;;;27.87;26.07;;;11.20;67.60;;;;;;5112188;28;20458;-77
2021/05/06 09:17:22;;;;;;;27.87;25.60;;;11.20;67.70;;;;;;5111840;28;20513;-77
2021/05/06 09:19:56;;;;;;;31.83;29.33;;;11.00;68.30;;;;;;5112397;28;20547;-77
2021/05/06 09:22:33;;;;;;;26.40;24.20;;;11.10;68.50;;;;;;5112173;28;20981;-77
2021/05/06 09:25:22;;;;;;;26.17;24.27;;;11.00;68.90;;;;;;5112237;28;20451;-77
2021/05/06 09:27:49;;;;;;;25.07;23.50;;;10.90;68.80;;;;;;5111899;28;20539;-77
2021/05/06 09:30:17;;;;;;;27.93;26.13;;;11.00;68.90;;;;;;5112262;28;20456;-77
2021/05/06 09:32:43;;;;;;;26.63;24.83;;;11.00;68.90;;;;;;5111712;27;20464;-77
2021/05/06 09:35:17;;;;;;;26.67;24.93;;;10.90;69.00;;;;;;5112116;28;20451;-77
2021/05/06 09:37:46;;;;;;;25.77;23.90;;;11.00;68.80;;;;;;5111481;28;21010;-77
2021/05/06 09:40:18;;;;;;;26.13;24.23;;;11.10;68.50;;;;;;5111977;28;20448;-77
2021/05/06 09:42:48;;;;;;;25.10;23.30;;;11.10;68.40;;;;;;5111784;28;20487;-77
2021/05/06 09:45:21;;;;;;;26.43;24.40;;;11.30;68.40;;;;;;5112042;28;20452;-77
2021/05/06 09:48:08;;;;;;;26.57;24.33;;;11.40;68.00;;;;;;5111666;28;20448;-77
2021/05/06 09:50:34;;;;;;;26.13;24.40;;;11.50;68.10;;;;;;5115073;28;20468;-77
2021/05/06 09:53:02;;;;;;;48.00;32.00;;;11.60;68.30;;;;;;5115537;28;20458;-77
2021/05/06 09:55:33;;;;;;;34.10;27.33;;;11.70;68.50;;;;;;5115165;28;21165;-77
2021/05/06 09:58:12;;;;;;;42.17;27.03;;;11.80;68.80;;;;;;5115681;28;20452;-77
2021/05/06 10:00:39;;;;;;;29.77;26.83;;;11.90;69.10;;;;;;5115638;28;20468;-78
2021/05/06 10:03:11;;;;;;;26.17;24.10;;;11.90;70.70;;;;;;5115296;28;20540;-77
2021/05/06 10:05:38;;;;;;;26.13;24.33;;;12.00;69.80;;;;;;5115188;28;20448;-77
2021/05/06 10:08:06;;;;;;;26.47;24.20;;;12.10;70.20;;;;;;5115411;28;20444;-77
2021/05/06 10:10:34;;;;;;;44.13;25.53;;;12.20;70.40;;;;;;5115446;28;20547;-77
2021/05/06 10:13:01;;;;;;;27.20;23.73;;;12.30;69.40;;;;;;5115317;28;20456;-77
2021/05/06 10:15:29;;;;;;;30.90;25.47;;;12.40;68.90;;;;;;5114798;28;20938;-78
2021/05/06 10:17:56;;;;;;;26.77;24.63;;;12.50;69.10;;;;;;5115114;28;20452;-77
2021/05/06 10:20:25;;;;;;;26.40;24.20;;;12.50;69.00;;;;;;5115062;28;20482;-77
2021/05/06 10:22:52;;;;;;;25.30;23.60;;;12.50;69.30;;;;;;5115026;28;20566;-78
2021/05/06 10:25:21;;;;;;;25.60;23.90;;;12.50;69.10;;;;;;5115186;28;20448;-81
2021/05/06 10:27:48;;;;;;;24.30;23.00;;;12.40;69.40;;;;;;5114853;28;20530;-77
2021/05/06 10:30:16;;;;;;;26.10;24.23;;;12.40;69.30;;;;;;5114862;28;20455;-78
2021/05/06 10:32:44;;;;;;;25.83;23.93;;;12.50;69.70;;;;;;5114637;28;20859;-78
2021/05/06 10:35:12;;;;;;;25.07;23.50;;;12.40;69.90;;;;;;5115041;28;20539;-77
2021/05/06 10:37:41;;;;;;;24.87;23.30;;;12.30;70.40;;;;;;5114208;28;20528;-78
2021/05/06 10:40:27;;;;;;;25.00;23.30;;;12.30;71.00;;;;;;5115007;28;20449;-77
2021/05/06 10:42:55;;;;;;;24.27;22.47;;;12.10;72.80;;;;;;5114637;28;20521;-77
2021/05/06 10:45:33;;;;;;;27.57;25.33;;;12.10;72.20;;;;;;5114718;28;20938;-77
2021/05/06 10:48:00;;;;;;;31.53;27.97;;;12.00;72.20;;;;;;5114710;28;20448;-77
2021/05/06 10:50:34;;;;;;;26.70;24.63;;;12.00;72.20;;;;;;5114580;28;20550;-77
2021/05/06 10:53:01;;;;;;;25.37;23.60;;;12.00;72.80;;;;;;5114636;28;20528;-77
2021/05/06 10:55:56;;;;;;;27.67;25.30;;;12.10;72.20;;;;;;5113970;28;20484;-78
2021/05/06 10:58:46;;;;;;;24.70;23.20;;;12.20;71.40;;;;;;5114453;28;20463;-77
2021/05/06 11:01:21;;;;;;;24.20;22.80;;;12.20;72.30;;;;;;5114174;28;20492;-78
2021/05/06 11:04:08;;;;;;;25.30;23.23;;;12.10;72.10;;;;;;5114327;28;20471;-77
2021/05/06 11:06:45;;;;;;;25.83;23.93;;;12.30;71.30;;;;;;5113938;28;20467;-77
2021/05/06 11:09:57;;;;;;;25.20;23.60;;;12.20;71.80;;;;;;5114232;28;20458;-77
2021/05/06 11:12:30;;;;;;;25.17;23.67;;;12.30;71.70;;;;;;5114313;28;20460;-77
2021/05/06 11:15:27;;;;;;;33.50;25.33;;;12.30;71.50;;;;;;5113948;28;20946;-77
2021/05/06 11:17:56;;;;;;;36.17;26.07;;;12.50;71.20;;;;;;5114058;28;20550;-77
2021/05/06 11:20:56;;;;;;;27.50;25.10;;;12.60;70.50;;;;;;5114070;28;20459;-77
2021/05/06 11:23:31;;;;;;;26.07;24.07;;;12.70;69.70;;;;;;5113936;28;20472;-76
2021/05/06 11:26:18;;;;;;;26.57;24.57;;;12.90;68.70;;;;;;5113313;28;20543;-77
2021/05/06 11:28:50;;;;;;;24.57;23.20;;;13.10;68.70;;;;;;5114099;28;20842;-76
2021/05/06 11:31:32;;;;;;;30.73;28.83;;;13.00;67.10;;;;;;5113864;28;20495;-76
2021/05/06 11:34:29;;;;;;;26.07;23.97;;;13.00;66.80;;;;;;5113061;27;20460;-76
2021/05/06 11:37:17;;;;;;;31.97;28.90;;;13.00;66.70;;;;;;5113076;28;20945;-76
2021/05/06 11:39:55;;;;;;;27.17;25.30;;;12.90;67.20;;;;;;5113794;28;20478;-76
2021/05/06 11:42:23;;;;;;;33.97;24.93;;;13.20;67.30;;;;;;5113543;28;20481;-75
2021/05/06 11:45:12;;;;;;;27.23;25.33;;;13.20;67.60;;;;;;5113523;28;20452;-76
2021/05/06 11:47:39;;;;;;;25.50;23.80;;;13.40;66.80;;;;;;5113052;28;20456;-76
2021/05/06 11:50:16;;;;;;;28.90;26.03;;;13.30;66.20;;;;;;5113334;28;20480;-76
2021/05/06 11:52:43;;;;;;;26.70;24.70;;;13.40;66.20;;;;;;5113373;28;20447;-76
2021/05/06 11:55:26;;;;;;;25.67;23.97;;;13.40;65.80;;;;;;5113369;28;20491;-76
2021/05/06 11:57:52;;;;;;;25.23;23.63;;;13.40;64.60;;;;;;5113198;28;20586;-77
2021/05/06 12:00:24;;;;;;;24.10;22.70;;;13.30;64.80;;;;;;5113197;28;20472;-76
2021/05/06 12:02:58;;;;;;;112.50;31.10;;;13.20;65.60;;;;;;5113081;28;20484;-75
2021/05/06 12:05:39;;;;;;;27.27;24.80;;;13.10;65.40;;;;;;5113270;28;20535;-76
2021/05/06 12:08:06;;;;;;;29.17;26.47;;;12.90;65.40;;;;;;5112959;28;20451;-76
2021/05/06 12:10:39;;;;;;;29.47;27.97;;;12.90;65.50;;;;;;5113023;28;20981;-76
2021/05/06 12:13:05;;;;;;;24.83;23.53;;;12.90;65.00;;;;;;5112814;28;20540;-76
2021/05/06 12:15:33;;;;;;;25.27;23.77;;;12.90;64.90;;;;;;5112366;28;21027;-75
2021/05/06 12:18:21;;;;;;;25.70;24.30;;;12.80;65.50;;;;;;5112988;28;20452;-76
2021/05/06 12:20:56;;;;;;;25.13;23.47;;;12.60;64.90;;;;;;5112725;28;20474;-76
2021/05/06 12:23:23;;;;;;;27.43;25.30;;;12.50;66.50;;;;;;5112851;28;21011;-76
2021/05/06 12:25:50;;;;;;;97.90;29.63;;;12.50;66.00;;;;;;5112279;28;20487;-77
2021/05/06 12:28:17;;;;;;;107.63;31.17;;;12.50;66.20;;;;;;5112969;28;20950;-77
2021/05/06 12:30:44;;;;;;;25.40;23.10;;;12.60;66.20;;;;;;5112865;28;20479;-76
2021/05/06 12:33:11;;;;;;;25.77;23.63;;;12.70;66.00;;;;;;5112019;27;20548;-77
2021/05/06 12:35:51;;;;;;;44.03;25.83;;;12.80;66.00;;;;;;5112286;28;20444;-77
2021/05/06 12:38:17;;;;;;;34.67;24.10;;;12.70;67.30;;;;;;5112394;28;20534;-77
2021/05/06 12:40:44;;;;;;;47.63;25.40;;;12.80;69.10;;;;;;5112593;28;20504;-76
2021/05/06 12:43:19;;;;;;;29.43;24.43;;;12.70;69.10;;;;;;5112550;28;21012;-77
2021/05/06 12:45:58;;;;;;;26.40;24.20;;;12.70;68.80;;;;;;5112272;28;20451;-77
2021/05/06 12:48:38;;;;;;;24.67;23.03;;;12.70;69.30;;;;;;5112720;28;20452;-76
2021/05/06 12:51:06;;;;;;;28.63;26.20;;;12.70;69.70;;;;;;5112526;28;20542;-76
2021/05/06 12:53:33;;;;;;;26.17;24.20;;;12.70;70.80;;;;;;5112542;28;20444;-77
2021/05/06 12:55:59;;;;;;;33.80;29.90;;;12.80;70.60;;;;;;5111991;28;20479;-77
2021/05/06 12:58:28;;;;;;;29.10;26.30;;;12.80;69.80;;;;;;5112477;28;20535;-77
2021/05/06 13:01:12;;;;;;;44.23;27.00;;;12.70;71.60;;;;;;5112430;28;20981;-76
2021/05/06 13:03:42;;;;;;;24.80;23.10;;;12.70;72.20;;;;;;5112456;28;20468;-77
2021/05/06 13:06:10;;;;;;;25.70;23.80;;;12.70;72.60;;;;;;5111824;28;20473;-77
2021/05/06 13:08:38;;;;;;;36.07;24.47;;;12.70;74.60;;;;;;5112284;28;20444;-77
2021/05/06 13:11:06;;;;;;;40.27;24.63;;;12.60;74.10;;;;;;5112380;28;20510;-76
2021/05/06 13:13:38;;;;;;;26.80;24.50;;;12.40;77.40;;;;;;5112376;28;21018;-76
2021/05/06 13:16:07;;;;;;;24.07;22.57;;;12.20;77.30;;;;;;5112021;28;20472;-76
2021/05/06 13:18:34;;;;;;;26.73;24.70;;;12.20;76.20;;;;;;5112210;28;20452;-76
2021/05/06 13:21:00;;;;;;;26.47;24.50;;;12.10;75.90;;;;;;5112082;28;20965;-77
2021/05/06 13:23:29;;;;;;;40.63;28.27;;;12.10;76.60;;;;;;5112013;28;20855;-76
2021/05/06 13:25:57;;;;;;;27.63;25.37;;;12.10;77.30;;;;;;5115654;28;20463;-77
2021/05/06 13:28:44;;;;;;;100.50;34.80;;;12.00;78.80;;;;;;5116296;28;20941;-75
2021/05/06 13:31:15;;;;;;;167.73;35.37;;;11.90;81.50;;;;;;5116174;28;20474;-76
2021/05/06 13:33:42;;;;;;;152.37;35.00;;;11.90;80.00;;;;;;5115509;27;20938;-76
2021/05/06 13:36:10;;;;;;;25.20;23.17;;;12.00;79.70;;;;;;5115466;28;20870;-75
2021/05/06 13:38:55;;;;;;;31.80;23.20;;;11.80;78.90;;;;;;5115711;28;20807;-76
2021/05/06 13:41:23;;;;;;;28.57;25.83;;;11.80;79.40;;;;;;5115766;28;20977;-76
2021/05/06 13:43:50;;;;;;;25.13;23.10;;;11.80;79.90;;;;;;5115764;28;20566;-75
2021/05/06 13:46:19;;;;;;;24.30;22.50;;;11.90;80.80;;;;;;5115277;28;20452;-76
2021/05/06 13:48:46;;;;;;;24.30;22.30;;;12.00;80.70;;;;;;5116085;28;20508;-77
2021/05/06 13:51:14;;;;;;;42.17;27.27;;;12.10;80.50;;;;;;5115654;28;20460;-76
2021/05/06 13:53:42;;;;;;;27.90;24.10;;;12.10;80.30;;;;;;5115874;28;20528;-75
2021/05/06 13:56:09;;;;;;;123.43;30.77;;;12.10;79.80;;;;;;5115103;28;20527;-76
2021/05/06 13:58:36;;;;;;;24.10;22.20;;;12.10;81.90;;;;;;5115368;28;20821;-75
2021/05/06 14:01:05;;;;;;;25.53;23.40;;;12.00;83.60;;;;;;5115436;28;20837;-76
2021/05/06 14:03:33;;;;;;;25.00;23.60;;;12.10;82.10;;;;;;5115469;28;20476;-76
2021/05/06 14:06:00;;;;;;;24.50;23.10;;;12.10;80.60;;;;;;5114962;28;20463;-76
2021/05/06 14:08:27;;;;;;;24.50;23.00;;;11.90;80.40;;;;;;5115584;28;20452;-76
2021/05/06 14:10:53;;;;;;;25.80;24.20;;;11.80;80.80;;;;;;5115268;28;20544;-76
2021/05/06 14:13:20;;;;;;;27.30;24.80;;;11.80;80.10;;;;;;5115340;28;20481;-77
2021/05/06 14:15:46;;;;;;;26.50;24.80;;;11.80;80.60;;;;;;5114819;28;21095;-76
2021/05/06 14:18:13;;;;;;;24.13;22.83;;;12.00;80.20;;;;;;5115296;28;20451;-77
2021/05/06 14:20:41;;;;;;;28.83;26.73;;;12.00;81.40;;;;;;5114955;28;20518;-76
2021/05/06 14:23:07;;;;;;;24.80;23.10;;;12.20;80.10;;;;;;5115202;28;20484;-76
2021/05/06 14:25:34;;;;;;;23.37;21.97;;;12.50;79.30;;;;;;5114737;28;20448;-76
2021/05/06 14:28:01;;;;;;;25.20;23.90;;;12.60;78.90;;;;;;5115155;28;20468;-77
2021/05/06 14:30:30;;;;;;;28.57;26.27;;;12.50;78.70;;;;;;5115076;27;20476;-76
2021/05/06 14:32:57;;;;;;;24.13;22.83;;;12.40;80.80;;;;;;5114668;28;20535;-76
2021/05/06 14:35:24;;;;;;;24.80;22.77;;;12.40;80.90;;;;;;5114526;28;20447;-76
2021/05/06 14:37:51;;;;;;;23.80;22.30;;;12.40;81.50;;;;;;5114451;28;20821;-77
2021/05/06 14:40:18;;;;;;;23.90;22.30;;;12.30;79.60;;;;;;5114755;28;20517;-77
2021/05/06 14:42:44;;;;;;;23.10;21.80;;;12.40;79.70;;;;;;5114583;28;20563;-77
2021/05/06 14:45:12;;;;;;;27.70;26.30;;;12.30;79.60;;;;;;5114623;28;21008;-76
2021/05/06 14:47:39;;;;;;;27.07;25.40;;;12.20;79.70;;;;;;5114268;28;20455;-77
2021/05/06 14:50:07;;;;;;;23.80;22.50;;;12.10;80.80;;;;;;5114660;27;20486;-76
2021/05/06 14:52:34;;;;;;;24.57;22.97;;;11.90;80.80;;;;;;5114633;28;20535;-76
2021/05/06 14:55:01;;;;;;;23.07;21.77;;;12.00;81.20;;;;;;5114367;28;20509;-78
2021/05/06 14:57:28;;;;;;;26.60;25.20;;;12.00;81.00;;;;;;5114203;28;20795;-77
2021/05/06 14:59:54;;;;;;;23.10;21.13;;;12.00;80.00;;;;;;5114474;27;20448;-77